Time;durP1;ratioP1;P1;durP2;ratioP2;P2;SDS_P1;SDS_P2;PMS_P1;PMS_P2;Temp;Humidity;BMP_temperature;BMP_pressure;BME280_temperature;BME280_humidity;BME280_pressure;Samples;Min_cycle;Max_cycle;Signal;HPM_P1;HPM_P2
2022/12/14 00:00:59;;;;;;;;;34.25;28.75;;;;;2.41;55.11;99790.09;5099956;27;45366;-54
2022/12/14 00:03:24;;;;;;;;;40.50;30.00;;;;;2.41;55.11;99774.34;5115233;27;46959;-58
2022/12/14 00:05:50;;;;;;;;;31.75;27.25;;;;;2.40;55.37;99758.72;5099603;27;45265;-56
2022/12/14 00:08:16;;;;;;;;;39.00;31.75;;;;;2.35;55.69;99753.00;5099620;27;45259;-58
2022/12/14 00:10:42;;;;;;;;;42.00;35.50;;;;;2.41;55.54;99763.03;5099660;27;45371;-52
2022/12/14 00:13:11;;;;;;;;;44.00;30.50;;;;;2.39;55.74;99762.28;5099065;27;46008;-57
2022/12/14 00:15:37;;;;;;;;;41.00;36.00;;;;;2.27;55.95;99742.25;5099271;27;45310;-55
2022/12/14 00:18:03;;;;;;;;;50.25;37.50;;;;;2.35;55.68;99763.47;5099543;27;45175;-58
2022/12/14 00:20:28;;;;;;;;;37.25;27.25;;;;;2.43;55.89;99774.22;5099577;27;45219;-53
2022/12/14 00:22:54;;;;;;;;;39.75;33.00;;;;;2.46;55.21;99772.22;5099265;27;45226;-58
2022/12/14 00:25:21;;;;;;;;;40.50;30.00;;;;;2.49;55.76;99768.53;5099092;27;45526;-58
2022/12/14 00:27:47;;;;;;;;;26.00;11.50;;;;;2.49;55.56;99768.53;5099211;27;45354;-58
2022/12/14 00:30:15;;;;;;;;;28.75;19.00;;;;;2.50;55.39;99762.31;5099092;27;45546;-55
2022/12/14 00:32:41;;;;;;;;;29.75;25.00;;;;;2.50;55.49;99751.81;5098710;27;46470;-57
2022/12/14 00:35:11;;;;;;;;;38.25;27.50;;;;;2.48;55.60;99751.91;5099044;27;45353;-55
2022/12/14 00:37:37;;;;;;;;;30.00;28.00;;;;;2.50;55.59;99754.44;5099086;27;45308;-56
2022/12/14 00:40:05;;;;;;;;;42.50;28.50;;;;;2.52;55.33;99746.44;5099290;27;45505;-54
2022/12/14 00:42:31;;;;;;;;;27.50;25.50;;;;;2.54;55.65;99748.00;5098825;27;45305;-53
2022/12/14 00:44:56;;;;;;;;;36.00;30.25;;;;;2.57;55.38;99744.28;5098795;27;45810;-56
2022/12/14 00:47:22;;;;;;;;;37.00;32.25;;;;;2.59;55.61;99739.75;5098992;27;45393;-54
2022/12/14 00:49:47;;;;;;;;;41.00;30.75;;;;;2.57;55.55;99729.38;5098914;27;45334;-55
2022/12/14 00:52:12;;;;;;;;;39.25;29.75;;;;;2.57;55.29;99729.38;5098513;27;46184;-55
2022/12/14 00:54:38;;;;;;;;;29.50;28.25;;;;;2.59;55.90;99727.47;5098627;27;45295;-55
2022/12/14 00:57:03;;;;;;;;;32.75;26.00;;;;;2.61;55.50;99728.19;5098733;27;45238;-56
2022/12/14 00:59:28;;;;;;;;;47.00;25.50;;;;;2.59;55.50;99718.75;5098832;27;45336;-54
2022/12/14 01:01:54;;;;;;;;;31.50;21.25;;;;;2.27;55.17;99666.16;5097972;27;45802;-58
2022/12/14 01:04:21;;;;;;;;;35.75;28.25;;;;;2.60;55.27;99716.00;5098546;27;45272;-55
2022/12/14 01:06:49;;;;;;;;;45.25;31.50;;;;;2.64;55.75;99725.28;5098491;27;45443;-58
2022/12/14 01:09:15;;;;;;;;;35.75;25.50;;;;;2.60;55.81;99721.25;5098602;27;45356;-54
2022/12/14 01:11:42;;;;;;;;;38.75;32.75;;;;;2.65;55.24;99736.63;5098279;27;45479;-55
2022/12/14 01:14:08;;;;;;;;;30.00;30.00;;;;;2.68;55.16;99739.84;5098289;27;45409;-53
2022/12/14 01:16:33;;;;;;;;;38.00;28.25;;;;;2.69;55.46;99743.31;5098503;27;45355;-54
2022/12/14 01:19:00;;;;;;;;;39.75;29.00;;;;;2.73;55.86;99757.88;5098717;27;45791;-57
2022/12/14 01:21:26;;;;;;;;;34.00;25.25;;;;;2.75;55.83;99755.97;5098058;27;46232;-55
2022/12/14 01:23:58;;;;;;;;;35.00;28.00;;;;;2.78;55.45;99766.22;5098328;27;45570;-53
2022/12/14 01:26:25;;;;;;;;;38.75;30.00;;;;;2.76;56.01;99760.25;5099050;27;45238;-51
2022/12/14 01:28:55;;;;;;;;;41.50;32.75;;;;;2.85;55.97;99777.91;5097822;27;45637;-52
2022/12/14 01:31:32;;;;;;;;;42.50;33.50;;;;;2.90;55.64;99777.56;5096987;27;47194;-53
2022/12/14 01:33:58;;;;;;;;;42.00;30.75;;;;;2.83;55.44;99745.69;5098112;27;45314;-57
2022/12/14 01:36:27;;;;;;;;;35.25;28.25;;;;;2.95;55.57;99762.25;5098193;27;45223;-54
2022/12/14 01:38:55;;;;;;;;;41.50;32.50;;;;;2.97;55.60;99768.25;5098251;27;45411;-55
2022/12/14 01:41:25;;;;;;;;;43.75;31.00;;;;;2.98;55.34;99762.84;5097870;27;45601;-50
2022/12/14 01:43:56;;;;;;;;;32.75;27.25;;;;;3.00;55.31;99771.47;5097909;27;45498;-52
2022/12/14 01:46:43;;;;;;;;;43.00;35.00;;;;;3.01;55.73;99761.78;5098253;27;45298;-48
2022/12/14 01:49:29;;;;;;;;;39.50;31.50;;;;;3.02;56.06;99770.50;5097961;27;45324;-58
2022/12/14 01:51:57;;;;;;;;;38.25;33.50;;;;;3.03;56.11;99761.66;5097784;27;46130;-51
2022/12/14 01:54:26;;;;;;;;;33.00;27.50;;;;;3.00;56.12;99757.50;5097698;27;45371;-55
2022/12/14 01:56:52;;;;;;;;;40.50;32.50;;;;;3.02;56.26;99763.44;5097983;27;45337;-55
2022/12/14 01:59:25;;;;;;;;;44.00;34.75;;;;;3.02;56.25;99771.31;5097989;27;45302;-54
2022/12/14 02:01:52;;;;;;;;;36.25;33.50;;;;;2.90;56.72;99732.91;5097668;27;45439;-57
2022/12/14 02:04:19;;;;;;;;;42.00;34.75;;;;;2.98;56.99;99736.56;5097540;27;45239;-55
2022/12/14 02:06:47;;;;;;;;;46.75;34.00;;;;;3.04;57.34;99755.47;5097858;27;45227;-53
2022/12/14 02:09:26;;;;;;;;;40.75;36.50;;;;;3.03;58.01;99762.47;5097958;27;45464;-58
2022/12/14 02:12:03;;;;;;;;;44.00;41.75;;;;;3.04;58.17;99784.38;5097337;27;46383;-52
2022/12/14 02:14:28;;;;;;;;;47.50;36.25;;;;;3.03;59.05;99765.09;5096252;27;45394;-54
2022/12/14 02:16:56;;;;;;;;;40.75;32.75;;;;;3.02;59.31;99771.31;5097534;27;45225;-59
2022/12/14 02:19:22;;;;;;;;;33.75;29.75;;;;;2.91;59.86;99753.81;5097637;27;45311;-52
2022/12/14 02:22:15;;;;;;;;;35.75;29.75;;;;;2.98;60.36;99756.75;5097315;27;46299;-54
2022/12/14 02:24:59;;;;;;;;;40.00;32.75;;;;;2.95;59.93;99752.59;5097242;27;45483;-53
2022/12/14 02:27:43;;;;;;;;;56.00;39.50;;;;;2.93;59.64;99740.53;5097526;27;45475;-56
2022/12/14 02:30:19;;;;;;;;;43.50;34.00;;;;;2.88;60.53;99733.03;5097665;27;45386;-59
2022/12/14 02:32:44;;;;;;;;;40.50;36.25;;;;;2.86;60.12;99739.34;5097209;27;46201;-54
2022/12/14 02:35:31;;;;;;;;;43.50;32.00;;;;;2.79;60.39;99728.53;5097173;27;45425;-57
2022/12/14 02:38:21;;;;;;;;;37.50;30.50;;;;;2.70;60.70;99716.94;5097162;27;45503;-52
2022/12/14 02:41:09;;;;;;;;;37.50;33.00;;;;;2.62;60.66;99713.25;5096020;27;45580;-57
2022/12/14 02:43:49;;;;;;;;;42.25;32.75;;;;;2.43;61.66;99685.00;5097010;27;46177;-57
2022/12/14 02:46:40;;;;;;;;;39.25;31.00;;;;;2.44;61.57;99695.38;5096790;27;45520;-50
2022/12/14 02:49:26;;;;;;;;;46.50;35.00;;;;;2.38;62.29;99697.66;5095520;27;45373;-51
2022/12/14 02:51:55;;;;;;;;;36.00;28.50;;;;;2.31;62.13;99694.66;5097244;27;45396;-57
2022/12/14 02:54:37;;;;;;;;;46.00;33.75;;;;;2.22;62.57;99696.19;5096887;27;45245;-54
2022/12/14 02:57:28;;;;;;;;;46.00;36.50;;;;;2.16;63.32;99688.00;5097006;27;45441;-55
2022/12/14 02:59:59;;;;;;;;;43.00;34.00;;;;;2.10;64.14;99670.91;5097217;27;45339;-55
2022/12/14 03:02:25;;;;;;;;;31.50;29.00;;;;;2.07;64.86;99668.56;5097073;27;45459;-54
2022/12/14 03:04:51;;;;;;;;;42.25;33.25;;;;;2.04;64.31;99667.94;5096651;27;46239;-58
2022/12/14 03:07:35;;;;;;;;;38.75;37.00;;;;;2.03;64.83;99667.13;5096821;27;45300;-56
2022/12/14 03:10:36;;;;;;;;;37.50;33.75;;;;;2.03;64.82;99676.78;5097155;27;45260;-58
2022/12/14 03:13:23;;;;;;;;;45.25;38.00;;;;;1.98;64.68;99667.47;5090976;27;45282;-49
2022/12/14 03:15:59;;;;;;;;;40.75;30.75;;;;;1.97;64.99;99663.16;5096698;27;45336;-56
2022/12/14 03:18:31;;;;;;;;;36.00;31.00;;;;;1.98;65.29;99662.22;5096813;27;45429;-56
2022/12/14 03:20:59;;;;;;;;;39.50;31.00;;;;;1.97;65.54;99664.94;5096924;27;46180;-55
2022/12/14 03:23:30;;;;;;;;;37.75;32.00;;;;;1.98;65.61;99664.84;5097068;27;45334;-56
2022/12/14 03:26:01;;;;;;;;;40.50;33.00;;;;;2.02;66.21;99681.16;5099086;27;46389;-55
2022/12/14 03:28:36;;;;;;;;;41.50;35.00;;;;;2.05;65.78;99683.56;5100066;27;45291;-59
2022/12/14 03:31:07;;;;;;;;;42.00;34.50;;;;;2.09;65.94;99677.13;5100211;27;45468;-57
2022/12/14 03:33:36;;;;;;;;;61.75;43.00;;;;;2.11;65.73;99674.41;5100409;27;45306;-57
2022/12/14 03:36:40;;;;;;;;;34.25;24.75;;;;;2.13;65.36;99678.56;5100013;27;46114;-51
2022/12/14 03:39:09;;;;;;;;;42.25;33.00;;;;;2.06;65.37;99659.00;5057284;28;45488;-55
2022/12/14 03:41:42;;;;;;;;;43.75;33.75;;;;;2.12;65.12;99671.66;5057241;28;45462;-58
2022/12/14 03:44:17;;;;;;;;;35.00;25.00;;;;;2.09;64.98;99665.81;5057073;28;45451;-54
2022/12/14 03:47:01;;;;;;;;;39.50;34.25;;;;;2.07;65.45;99659.84;5057191;28;46102;-56
2022/12/14 03:49:41;;;;;;;;;46.00;32.00;;;;;2.09;64.93;99658.75;5057190;28;45406;-50
2022/12/14 03:52:18;;;;;;;;;36.25;33.00;;;;;2.10;64.90;99646.47;5057573;28;45458;-52
2022/12/14 03:54:54;;;;;;;;;37.50;32.25;;;;;2.08;64.96;99643.16;5057016;28;45557;-58
2022/12/14 03:57:27;;;;;;;;;34.75;30.75;;;;;2.06;64.70;99634.56;5056728;28;46341;-55
2022/12/14 04:00:01;;;;;;;;;38.75;34.00;;;;;2.01;64.52;99621.78;5057043;28;45461;-56
2022/12/14 04:02:41;;;;;;;;;32.75;27.25;;;;;2.01;64.87;99619.19;5057155;28;45320;-54
2022/12/14 04:05:19;;;;;;;;;44.75;33.50;;;;;1.96;64.42;99624.78;5057680;28;45724;-59
2022/12/14 04:08:04;;;;;;;;;44.00;35.75;;;;;1.97;64.92;99630.84;5056950;28;45434;-54
2022/12/14 04:19:09;;;;;;;;;42.75;35.00;;;;;2.01;65.47;99619.19;5099615;27;45275;-58
2022/12/14 04:21:42;;;;;;;;;39.25;26.75;;;;;2.00;65.54;99607.84;5099534;27;45902;-54
2022/12/14 04:27:28;;;;;;;;;50.00;37.00;;;;;1.95;65.12;99619.66;5099289;27;45324;-55
2022/12/14 04:29:56;;;;;;;;;32.50;28.00;;;;;1.91;65.53;99600.72;5098227;27;47018;-55
2022/12/14 04:32:32;;;;;;;;;43.25;33.50;;;;;1.97;65.49;99609.88;5099095;27;45465;-55
2022/12/14 04:35:22;;;;;;;;;32.25;27.25;;;;;1.99;65.49;99613.22;5098931;27;45381;-60
2022/12/14 04:37:53;;;;;;;;;45.00;34.75;;;;;2.00;65.60;99614.88;5097253;27;45255;-57
2022/12/14 04:40:31;;;;;;;;;41.00;31.00;;;;;1.99;65.30;99613.22;5098822;27;46465;-57
2022/12/14 04:43:04;;;;;;;;;33.00;27.25;;;;;1.99;65.51;99610.59;5098909;27;45472;-53
2022/12/14 04:45:39;;;;;;;;;38.50;31.50;;;;;1.96;65.36;99623.94;5099016;27;45303;-57
2022/12/14 04:48:17;;;;;;;;;41.00;33.00;;;;;1.95;65.23;99628.38;5099094;27;45548;-55
2022/12/14 04:50:49;;;;;;;;;43.00;29.75;;;;;1.90;65.54;99624.44;5099972;27;45287;-57
2022/12/14 04:53:25;;;;;;;;;37.00;31.25;;;;;1.97;65.56;99643.97;5099933;27;45551;-54
2022/12/14 04:56:11;;;;;;;;;47.75;31.75;;;;;2.00;66.07;99638.50;5099256;27;45364;-51
2022/12/14 04:58:39;;;;;;;;;38.50;27.25;;;;;2.03;65.28;99634.81;5099185;27;45278;-51
2022/12/14 05:01:23;;;;;;;;;47.50;37.25;;;;;2.02;65.28;99639.19;5098547;27;46447;-50
2022/12/14 05:04:07;;;;;;;;;44.75;32.25;;;;;2.03;65.30;99646.13;5098504;27;45295;-53
2022/12/14 05:06:53;;;;;;;;;45.25;34.75;;;;;2.05;65.24;99646.00;5098837;27;45326;-55
2022/12/14 05:09:28;;;;;;;;;28.00;22.25;;;;;2.08;65.54;99645.78;5098863;27;45366;-53
2022/12/14 05:12:18;;;;;;;;;41.75;33.50;;;;;2.07;65.68;99636.25;5098449;27;46249;-51
2022/12/14 05:14:53;;;;;;;;;45.50;30.50;;;;;2.10;65.79;99639.44;5098083;27;45397;-54
2022/12/14 05:17:19;;;;;;;;;35.75;32.50;;;;;2.12;66.06;99634.91;5098664;27;45321;-57
2022/12/14 05:19:46;;;;;;;;;38.75;24.25;;;;;2.10;65.43;99626.31;5114381;27;45578;-52
2022/12/14 05:22:11;;;;;;;;;34.25;31.50;;;;;2.12;65.17;99616.56;5098141;27;45993;-51
2022/12/14 05:24:36;;;;;;;;;47.75;36.50;;;;;2.14;65.80;99619.03;5098251;27;45227;-53
2022/12/14 05:27:02;;;;;;;;;39.75;34.00;;;;;2.12;65.15;99615.72;5098182;27;45572;-52
2022/12/14 05:29:27;;;;;;;;;36.25;31.00;;;;;2.15;65.28;99621.56;5098588;27;45299;-53
2022/12/14 05:31:53;;;;;;;;;34.75;31.00;;;;;2.16;65.66;99619.78;5098233;27;45450;-55
2022/12/14 05:34:19;;;;;;;;;38.00;35.50;;;;;2.17;65.19;99624.88;5098022;27;45202;-61
2022/12/14 05:36:44;;;;;;;;;43.00;30.25;;;;;2.16;65.18;99614.53;5098042;27;45313;-51
2022/12/14 05:39:09;;;;;;;;;30.75;25.75;;;;;2.17;65.30;99619.66;5098262;27;45464;-46
2022/12/14 05:41:35;;;;;;;;;39.25;34.50;;;;;2.18;65.48;99612.59;5096542;27;47115;-52
2022/12/14 05:44:00;;;;;;;;;36.75;32.50;;;;;1.80;65.56;99556.13;5097710;27;45276;-51
2022/12/14 05:46:25;;;;;;;;;53.00;41.00;;;;;2.18;65.61;99623.94;5097679;27;45362;-51
2022/12/14 05:48:51;;;;;;;;;40.50;38.00;;;;;2.18;65.65;99634.44;5098117;27;45750;-49
2022/12/14 05:51:16;;;;;;;;;43.25;32.50;;;;;2.17;66.24;99635.38;5097677;27;45346;-59
2022/12/14 05:53:42;;;;;;;;;36.75;25.50;;;;;2.18;65.57;99642.28;5097721;27;45401;-58
2022/12/14 05:56:09;;;;;;;;;42.25;30.25;;;;;2.18;66.03;99649.34;5097941;27;45351;-55
2022/12/14 05:58:35;;;;;;;;;42.25;32.00;;;;;2.16;66.37;99652.09;5097838;27;45335;-52
2022/12/14 06:01:06;;;;;;;;;37.50;30.50;;;;;2.17;66.54;99653.75;5097744;27;45504;-52
2022/12/14 06:03:33;;;;;;;;;47.25;36.00;;;;;2.19;66.99;99659.72;5097615;27;45309;-49
2022/12/14 06:06:07;;;;;;;;;44.00;36.25;;;;;2.20;66.65;99658.78;5097775;27;45454;-54
2022/12/14 06:08:34;;;;;;;;;40.25;30.00;;;;;2.19;66.49;99659.72;5098105;27;45416;-57
2022/12/14 06:11:26;;;;;;;;;54.00;36.50;;;;;2.19;65.75;99651.84;5097519;27;46230;-56
2022/12/14 06:13:51;;;;;;;;;36.75;29.50;;;;;2.22;66.65;99658.63;5093345;27;45361;-55
2022/12/14 06:16:20;;;;;;;;;42.00;30.75;;;;;2.22;66.48;99659.47;5097598;27;45330;-51
2022/12/14 06:18:55;;;;;;;;;43.75;35.75;;;;;2.23;66.17;99665.53;5097844;27;45380;-55
2022/12/14 06:21:24;;;;;;;;;41.25;27.25;;;;;2.22;66.57;99664.72;5097583;27;45373;-52
2022/12/14 06:23:50;;;;;;;;;40.00;30.00;;;;;2.26;66.42;99667.94;5097294;27;45196;-57
2022/12/14 06:26:16;;;;;;;;;58.75;45.75;;;;;2.24;66.52;99670.69;5097612;27;45361;-51
2022/12/14 06:28:42;;;;;;;;;53.50;37.25;;;;;2.22;66.37;99662.09;5097581;27;45441;-50
2022/12/14 06:31:15;;;;;;;;;45.50;36.00;;;;;2.21;66.37;99663.06;5096960;27;46425;-59
2022/12/14 06:33:40;;;;;;;;;37.25;31.75;;;;;2.21;66.49;99659.59;5097104;27;45279;-61
2022/12/14 06:36:06;;;;;;;;;44.50;35.00;;;;;2.19;66.85;99656.25;5097292;27;45152;-59
2022/12/14 06:38:31;;;;;;;;;47.00;37.00;;;;;2.15;66.80;99660.94;5097925;27;45337;-49
2022/12/14 06:40:56;;;;;;;;;48.25;35.25;;;;;2.06;67.02;99645.03;5098348;27;46270;-60
2022/12/14 06:43:25;;;;;;;;;39.50;34.25;;;;;2.15;67.01;99663.53;5096789;27;45460;-49
2022/12/14 06:45:50;;;;;;;;;47.00;34.75;;;;;2.14;67.49;99653.97;5099161;27;45391;-64
2022/12/14 06:48:16;;;;;;;;;44.25;39.50;;;;;2.18;67.17;99654.59;5098906;27;45491;-61
2022/12/14 06:50:41;;;;;;;;;52.00;39.00;;;;;2.18;67.15;99662.44;5098418;27;46449;-49
2022/12/14 06:53:12;;;;;;;;;40.75;30.50;;;;;2.15;67.22;99658.31;5098606;27;45385;-57
2022/12/14 06:55:37;;;;;;;;;45.50;35.75;;;;;2.18;67.03;99675.56;5097691;27;45456;-61
2022/12/14 06:58:02;;;;;;;;;53.25;42.00;;;;;2.16;66.83;99667.84;5097873;27;45314;-50
2022/12/14 07:00:28;;;;;;;;;49.00;33.50;;;;;2.14;67.41;99661.84;5099964;27;46085;-55
2022/12/14 07:02:53;;;;;;;;;42.75;31.50;;;;;2.14;66.71;99669.72;5101430;27;45298;-49
2022/12/14 07:05:19;;;;;;;;;41.75;33.75;;;;;2.12;67.45;99674.28;5100744;27;45690;-50
2022/12/14 07:07:45;;;;;;;;;49.25;38.50;;;;;2.09;67.72;99671.88;5100560;27;45392;-48
2022/12/14 07:10:11;;;;;;;;;39.75;33.00;;;;;2.13;68.13;99685.59;5100444;27;46119;-50
2022/12/14 07:12:37;;;;;;;;;49.25;38.50;;;;;2.14;68.32;99687.25;5100211;27;45303;-49
2022/12/14 07:15:03;;;;;;;;;35.25;33.25;;;;;2.17;68.33;99687.84;5100418;27;45354;-55
2022/12/14 07:17:28;;;;;;;;;46.50;38.50;;;;;2.15;68.47;99687.16;5100283;27;45323;-48
2022/12/14 07:19:54;;;;;;;;;41.75;35.50;;;;;2.16;68.36;99693.25;5100177;27;47105;-59
2022/12/14 07:22:19;;;;;;;;;53.75;36.50;;;;;2.21;68.27;99707.66;5100152;27;45425;-52
2022/12/14 07:24:45;;;;;;;;;41.25;34.75;;;;;2.19;68.50;99703.47;5100170;27;45222;-49
2022/12/14 07:27:10;;;;;;;;;62.25;40.75;;;;;2.17;68.17;99698.34;5100491;27;45304;-50
2022/12/14 07:29:36;;;;;;;;;49.75;37.00;;;;;2.21;68.61;99709.44;5100043;27;46328;-51
2022/12/14 07:32:01;;;;;;;;;45.00;40.50;;;;;2.16;68.88;99701.09;5100065;27;45387;-50
2022/12/14 07:34:27;;;;;;;;;45.50;32.50;;;;;2.26;68.95;99723.03;5100001;27;45441;-49
2022/12/14 07:36:52;;;;;;;;;44.25;38.25;;;;;2.31;68.67;99738.44;5100152;27;45339;-52
2022/12/14 07:39:19;;;;;;;;;45.25;37.00;;;;;2.30;68.81;99734.97;5099873;27;45359;-50
2022/12/14 07:41:46;;;;;;;;;46.25;38.00;;;;;2.33;69.21;99740.00;5099972;27;45361;-48
2022/12/14 07:44:12;;;;;;;;;51.75;40.25;;;;;2.34;68.99;99727.69;5099937;27;45416;-47
2022/12/14 07:46:38;;;;;;;;;39.00;35.50;;;;;2.39;69.01;99742.13;5100049;27;45858;-48
2022/12/14 07:49:04;;;;;;;;;49.75;36.25;;;;;2.42;69.63;99743.69;5099606;27;47077;-47
2022/12/14 07:51:34;;;;;;;;;44.50;37.25;;;;;2.46;69.00;99742.50;5099531;27;45331;-47
2022/12/14 07:54:01;;;;;;;;;54.25;41.75;;;;;2.51;69.05;99740.34;5099780;27;45303;-51
2022/12/14 07:56:29;;;;;;;;;42.00;37.25;;;;;2.54;68.15;99749.78;5099662;27;45444;-51
2022/12/14 07:58:55;;;;;;;;;34.75;30.00;;;;;2.55;68.52;99749.66;5099312;27;46268;-52
2022/12/14 08:01:22;;;;;;;;;44.50;32.00;;;;;2.56;68.46;99739.97;5099411;27;45302;-49
2022/12/14 08:03:50;;;;;;;;;35.50;30.75;;;;;2.54;68.10;99737.50;5099662;27;45456;-48
2022/12/14 08:06:17;;;;;;;;;56.00;39.50;;;;;2.61;67.79;99746.56;5099980;27;45307;-52
2022/12/14 08:08:42;;;;;;;;;51.00;40.00;;;;;2.64;68.24;99753.34;5098092;27;46324;-55
2022/12/14 08:11:09;;;;;;;;;46.75;35.00;;;;;2.65;67.99;99753.22;5099176;27;45358;-48
2022/12/14 08:13:37;;;;;;;;;43.25;34.75;;;;;2.67;67.58;99753.94;5099531;27;45311;-52
2022/12/14 08:16:09;;;;;;;;;44.75;37.50;;;;;2.68;67.68;99755.59;5099596;27;45250;-50
2022/12/14 08:18:35;;;;;;;;;46.25;37.00;;;;;2.69;67.97;99759.91;5099148;27;46222;-51
2022/12/14 08:21:02;;;;;;;;;53.75;36.00;;;;;2.71;68.04;99758.00;5099174;27;45275;-49
2022/12/14 08:23:27;;;;;;;;;56.50;37.75;;;;;2.74;67.37;99762.19;5099118;27;45312;-49
2022/12/14 08:25:54;;;;;;;;;50.50;37.00;;;;;2.74;67.14;99757.78;5099582;27;45432;-52
2022/12/14 08:28:20;;;;;;;;;39.00;35.25;;;;;2.74;67.30;99756.94;5099439;27;46212;-46
2022/12/14 08:30:45;;;;;;;;;46.00;40.25;;;;;2.73;67.43;99757.88;5099094;27;45479;-54
2022/12/14 08:33:10;;;;;;;;;63.00;38.25;;;;;2.74;67.74;99752.53;5099306;27;45352;-50
2022/12/14 08:35:36;;;;;;;;;46.25;33.75;;;;;2.75;67.14;99754.19;5099232;27;45309;-48
2022/12/14 08:38:01;;;;;;;;;41.50;35.75;;;;;2.76;66.94;99749.75;5099034;27;45961;-49
2022/12/14 08:40:27;;;;;;;;;54.00;37.75;;;;;2.78;66.93;99754.88;5098946;27;45380;-49
2022/12/14 08:42:52;;;;;;;;;60.00;38.25;;;;;2.75;66.75;99756.81;5099092;27;45350;-48
2022/12/14 08:45:18;;;;;;;;;45.25;36.00;;;;;2.70;67.06;99751.09;5099409;27;45424;-49
2022/12/14 08:47:45;;;;;;;;;54.00;40.50;;;;;2.84;67.27;99778.06;5098645;27;46012;-48
2022/12/14 08:50:10;;;;;;;;;46.25;36.25;;;;;2.86;67.15;99761.19;5095826;27;45434;-47
2022/12/14 08:52:36;;;;;;;;;51.50;37.50;;;;;2.89;66.04;99754.88;5098380;27;45462;-53
2022/12/14 08:55:02;;;;;;;;;43.50;35.50;;;;;2.90;65.99;99759.16;5098637;27;45446;-53
2022/12/14 08:57:27;;;;;;;;;46.25;33.75;;;;;2.95;66.26;99765.75;5098236;27;45436;-49
2022/12/14 08:59:53;;;;;;;;;50.25;40.00;;;;;2.98;66.25;99770.72;5098009;27;45444;-48
2022/12/14 09:02:18;;;;;;;;;49.50;38.50;;;;;3.03;65.80;99780.88;5098232;27;45442;-49
2022/12/14 09:04:43;;;;;;;;;48.50;35.50;;;;;3.07;66.10;99784.94;5098378;27;45376;-47
2022/12/14 09:07:09;;;;;;;;;46.00;35.25;;;;;3.11;65.79;99781.09;5097973;27;46347;-48
2022/12/14 09:09:36;;;;;;;;;47.75;40.50;;;;;3.17;65.81;99785.06;5098202;27;45521;-48
2022/12/14 09:12:05;;;;;;;;;41.25;34.75;;;;;3.22;65.75;99781.09;5098234;27;45402;-47
2022/12/14 09:14:32;;;;;;;;;53.75;43.25;;;;;3.26;65.36;99784.31;5096774;27;45456;-49
2022/12/14 09:16:57;;;;;;;;;42.50;31.00;;;;;3.29;66.11;99785.84;5097851;27;46179;-57
2022/12/14 09:19:23;;;;;;;;;50.00;41.50;;;;;3.32;65.44;99794.31;5097519;27;45649;-48
2022/12/14 09:21:48;;;;;;;;;53.50;42.75;;;;;3.28;65.26;99789.44;5098179;27;45289;-47
2022/12/14 09:24:13;;;;;;;;;52.25;41.75;;;;;3.35;65.18;99803.75;5097869;27;45469;-47
2022/12/14 09:26:39;;;;;;;;;43.00;37.75;;;;;3.36;65.15;99802.78;5097736;27;45623;-48
2022/12/14 09:29:04;;;;;;;;;63.00;40.50;;;;;3.36;64.70;99800.16;5096259;27;45461;-47
2022/12/14 09:31:30;;;;;;;;;56.25;35.75;;;;;3.39;63.59;99818.31;5097964;27;45540;-47
2022/12/14 09:33:55;;;;;;;;;44.75;36.50;;;;;3.35;64.07;99817.72;5098291;27;45308;-47
2022/12/14 09:36:23;;;;;;;;;50.00;39.00;;;;;3.42;64.28;99829.44;5097841;27;45844;-48
2022/12/14 09:38:50;;;;;;;;;48.50;35.75;;;;;3.44;65.00;99829.31;5097513;27;45472;-48
2022/12/14 09:41:33;;;;;;;;;50.75;41.00;;;;;3.48;64.26;99847.34;5097832;27;45270;-45
2022/12/14 09:44:43;;;;;;;;;50.50;37.25;;;;;3.52;64.72;99841.84;5097917;27;45501;-49
2022/12/14 09:47:28;;;;;;;;;61.50;40.75;;;;;3.56;63.79;99835.38;5076031;27;46330;-46
2022/12/14 09:49:57;;;;;;;;;49.00;36.75;;;;;3.61;64.75;99834.03;5097392;27;45486;-49
2022/12/14 09:52:39;;;;;;;;;47.00;36.75;;;;;3.66;64.35;99837.13;5097629;27;45388;-46
2022/12/14 09:55:17;;;;;;;;;47.25;35.25;;;;;3.70;64.34;99835.06;5097754;27;45230;-48
2022/12/14 09:57:46;;;;;;;;;49.25;38.50;;;;;3.80;63.91;99835.19;5097535;27;45887;-47
2022/12/14 10:00:17;;;;;;;;;57.25;39.75;;;;;3.89;63.50;99832.63;5097472;27;45259;-51
2022/12/14 10:02:51;;;;;;;;;42.25;36.50;;;;;3.99;63.60;99835.31;5097434;27;45305;-51
2022/12/14 10:05:31;;;;;;;;;46.00;35.25;;;;;4.15;62.11;99824.34;5097542;27;45396;-53
2022/12/14 10:08:02;;;;;;;;;54.25;35.00;;;;;4.25;61.65;99826.06;5097059;27;46271;-49
2022/12/14 10:11:10;;;;;;;;;55.00;41.75;;;;;4.33;62.30;99822.81;5097219;27;45478;-48
2022/12/14 10:14:00;;;;;;;;;49.25;36.00;;;;;4.38;61.97;99828.53;5014158;28;45409;-50
2022/12/14 10:16:47;;;;;;;;;46.50;37.75;;;;;4.62;61.07;99830.88;5014373;28;45628;-47
2022/12/14 10:19:40;;;;;;;;;52.00;41.25;;;;;4.65;60.44;99829.78;5014148;28;45445;-49
2022/12/14 10:22:11;;;;;;;;;44.00;40.50;;;;;4.65;59.97;99833.25;5014140;28;45389;-48
2022/12/14 10:24:43;;;;;;;;;57.75;42.50;;;;;4.69;59.94;99837.28;5013770;28;45223;-51
2022/12/14 10:27:13;;;;;;;;;60.50;44.00;;;;;4.77;59.28;99839.28;5014647;28;45291;-46
2022/12/14 10:29:47;;;;;;;;;57.50;43.75;;;;;4.85;60.03;99828.09;5014161;28;46415;-51
2022/12/14 10:32:29;;;;;;;;;43.25;36.50;;;;;5.12;58.59;99825.66;5013917;28;45568;-46
2022/12/14 10:34:54;;;;;;;;;59.00;42.50;;;;;5.17;58.13;99828.72;5014615;28;45718;-46
2022/12/14 10:37:28;;;;;;;;;40.50;33.50;;;;;5.29;58.07;99833.91;5018030;28;45683;-48
2022/12/14 10:40:08;;;;;;;;;55.00;38.75;;;;;5.34;58.15;99839.59;5017725;28;46498;-53
2022/12/14 10:42:59;;;;;;;;;46.75;34.75;;;;;5.37;57.40;99823.50;5017359;28;45491;-47
2022/12/14 10:45:49;;;;;;;;;48.25;41.50;;;;;5.39;57.99;99825.03;5017619;28;45465;-56
2022/12/14 10:48:44;;;;;;;;;49.00;39.50;;;;;5.40;57.36;99828.53;5017415;28;45511;-64
2022/12/14 10:51:18;;;;;;;;;51.00;42.25;;;;;5.43;57.63;99830.88;5087680;27;45453;-50
2022/12/14 10:53:49;;;;;;;;;52.50;35.25;;;;;5.38;56.56;99827.81;5100083;27;45505;-51
2022/12/14 10:56:26;;;;;;;;;49.75;43.25;;;;;5.29;56.65;99826.81;5100322;27;45294;-51
2022/12/14 10:59:16;;;;;;;;;46.75;41.00;;;;;5.28;56.92;99834.88;5100692;27;45259;-64
2022/12/14 11:01:43;;;;;;;;;37.25;36.00;;;;;5.20;56.69;99828.47;5100328;27;46390;-50
2022/12/14 11:04:30;;;;;;;;;48.75;40.50;;;;;5.12;56.27;99846.75;5100168;27;45397;-54
2022/12/14 11:06:58;;;;;;;;;52.00;38.00;;;;;5.07;56.29;99843.69;5099972;27;45416;-57
2022/12/14 11:09:26;;;;;;;;;45.75;36.00;;;;;5.05;56.96;99842.16;5100213;27;45343;-55
2022/12/14 11:12:06;;;;;;;;;50.25;42.25;;;;;5.02;57.03;99835.34;5100255;27;46120;-53
2022/12/14 11:14:35;;;;;;;;;48.50;39.25;;;;;4.99;56.45;99848.78;5100106;27;45272;-56
2022/12/14 11:17:00;;;;;;;;;41.75;36.00;;;;;4.92;56.52;99839.75;5099934;27;45470;-48
2022/12/14 11:19:27;;;;;;;;;53.75;35.50;;;;;4.98;56.64;99844.50;5100182;27;45446;-57
2022/12/14 11:22:12;;;;;;;;;56.00;40.50;;;;;4.94;56.36;99840.47;5099852;27;46867;-59
2022/12/14 11:24:46;;;;;;;;;55.75;40.00;;;;;4.97;56.57;99846.31;5099962;27;45282;-47
2022/12/14 11:27:17;;;;;;;;;47.50;38.00;;;;;4.97;57.21;99848.94;5100154;27;45240;-47
2022/12/14 11:29:46;;;;;;;;;62.00;44.25;;;;;4.96;56.71;99856.97;5100724;27;45421;-46
2022/12/14 11:32:21;;;;;;;;;44.25;38.25;;;;;4.97;56.44;99856.84;5100543;27;46418;-51
2022/12/14 11:34:55;;;;;;;;;53.75;34.25;;;;;5.02;56.01;99843.25;5099611;27;45369;-46
2022/12/14 11:37:31;;;;;;;;;44.75;37.50;;;;;5.02;55.66;99842.44;5099966;27;45337;-52
2022/12/14 11:40:00;;;;;;;;;62.25;45.00;;;;;4.95;55.63;99850.03;5099935;27;45351;-56
2022/12/14 11:42:26;;;;;;;;;57.00;41.25;;;;;4.89;55.65;99861.94;5099587;27;46242;-54
2022/12/14 11:44:52;;;;;;;;;52.50;42.00;;;;;4.87;56.01;99863.03;5098218;27;45235;-60
2022/12/14 11:47:28;;;;;;;;;58.50;42.25;;;;;4.87;55.77;99869.13;5099949;27;45366;-46
2022/12/14 11:49:56;;;;;;;;;42.25;38.50;;;;;5.00;55.84;99861.81;5099791;27;45449;-45
2022/12/14 11:52:38;;;;;;;;;44.75;32.25;;;;;5.06;55.58;99868.41;5099099;27;45516;-54
2022/12/14 11:55:10;;;;;;;;;56.75;42.75;;;;;5.06;56.28;99873.66;5099028;27;45641;-52